sensor_id;sensor_type;location;lat;lon;timestamp;P1;durP1;ratioP1;P2;durP2;ratioP2
58250;SDS011;51449;51.676;5.812;2022-07-10T00:01:02;7.23;;;3.27;;
58250;SDS011;51449;51.676;5.812;2022-07-10T00:03:24;6.43;;;2.40;;
58250;SDS011;51449;51.676;5.812;2022-07-10T00:05:46;5.50;;;2.53;;
58250;SDS011;51449;51.676;5.812;2022-07-10T00:08:10;6.67;;;2.43;;
58250;SDS011;51449;51.676;5.812;2022-07-10T00:10:32;5.03;;;2.30;;
58250;SDS011;51449;51.676;5.812;2022-07-10T00:12:55;8.67;;;2.30;;
58250;SDS011;51449;51.676;5.812;2022-07-10T00:15:18;5.97;;;2.20;;
58250;SDS011;51449;51.676;5.812;2022-07-10T00:17:40;7.83;;;2.27;;
58250;SDS011;51449;51.676;5.812;2022-07-10T00:20:04;3.80;;;2.27;;
58250;SDS011;51449;51.676;5.812;2022-07-10T00:22:28;7.75;;;2.30;;
58250;SDS011;51449;51.676;5.812;2022-07-10T00:24:50;8.37;;;2.00;;
58250;SDS011;51449;51.676;5.812;2022-07-10T00:27:12;6.30;;;2.10;;
58250;SDS011;51449;51.676;5.812;2022-07-10T00:29:34;6.47;;;2.23;;
58250;SDS011;51449;51.676;5.812;2022-07-10T00:31:56;7.60;;;2.30;;
58250;SDS011;51449;51.676;5.812;2022-07-10T00:34:18;6.37;;;2.47;;
58250;SDS011;51449;51.676;5.812;2022-07-10T00:36:40;6.50;;;2.10;;
58250;SDS011;51449;51.676;5.812;2022-07-10T00:39:02;6.00;;;2.03;;
58250;SDS011;51449;51.676;5.812;2022-07-10T00:41:24;7.17;;;2.40;;
58250;SDS011;51449;51.676;5.812;2022-07-10T00:43:56;8.93;;;2.83;;
58250;SDS011;51449;51.676;5.812;2022-07-10T00:46:21;7.25;;;2.08;;
58250;SDS011;51449;51.676;5.812;2022-07-10T00:48:43;7.73;;;2.40;;
58250;SDS011;51449;51.676;5.812;2022-07-10T00:51:05;5.50;;;2.13;;
58250;SDS011;51449;51.676;5.812;2022-07-10T00:53:27;5.10;;;2.10;;
58250;SDS011;51449;51.676;5.812;2022-07-10T00:55:49;6.37;;;2.00;;
58250;SDS011;51449;51.676;5.812;2022-07-10T00:58:11;6.13;;;2.20;;
58250;SDS011;51449;51.676;5.812;2022-07-10T01:00:35;5.60;;;2.13;;
58250;SDS011;51449;51.676;5.812;2022-07-10T01:02:59;5.10;;;2.20;;
58250;SDS011;51449;51.676;5.812;2022-07-10T01:05:21;9.10;;;2.33;;
58250;SDS011;51449;51.676;5.812;2022-07-10T01:07:43;6.73;;;2.20;;
58250;SDS011;51449;51.676;5.812;2022-07-10T01:10:05;7.87;;;2.30;;
58250;SDS011;51449;51.676;5.812;2022-07-10T01:12:27;7.50;;;2.40;;
58250;SDS011;51449;51.676;5.812;2022-07-10T01:14:49;4.10;;;2.10;;
58250;SDS011;51449;51.676;5.812;2022-07-10T01:17:11;8.23;;;2.23;;
58250;SDS011;51449;51.676;5.812;2022-07-10T01:19:35;5.13;;;2.05;;
58250;SDS011;51449;51.676;5.812;2022-07-10T01:21:58;6.10;;;2.37;;
58250;SDS011;51449;51.676;5.812;2022-07-10T01:24:20;5.10;;;2.20;;
58250;SDS011;51449;51.676;5.812;2022-07-10T01:26:42;5.40;;;2.27;;
58250;SDS011;51449;51.676;5.812;2022-07-10T01:29:05;6.50;;;2.10;;
58250;SDS011;51449;51.676;5.812;2022-07-10T01:31:28;11.98;;;2.45;;
58250;SDS011;51449;51.676;5.812;2022-07-10T01:33:50;7.07;;;2.10;;
58250;SDS011;51449;51.676;5.812;2022-07-10T01:36:12;5.07;;;1.90;;
58250;SDS011;51449;51.676;5.812;2022-07-10T01:38:35;7.47;;;2.03;;
58250;SDS011;51449;51.676;5.812;2022-07-10T01:40:57;4.53;;;2.17;;
58250;SDS011;51449;51.676;5.812;2022-07-10T01:43:19;7.33;;;2.00;;
58250;SDS011;51449;51.676;5.812;2022-07-10T01:45:41;5.83;;;2.20;;
58250;SDS011;51449;51.676;5.812;2022-07-10T01:48:05;6.90;;;2.25;;
58250;SDS011;51449;51.676;5.812;2022-07-10T01:50:27;8.63;;;2.30;;
58250;SDS011;51449;51.676;5.812;2022-07-10T01:52:49;8.17;;;2.40;;
58250;SDS011;51449;51.676;5.812;2022-07-10T01:55:11;7.67;;;2.20;;
58250;SDS011;51449;51.676;5.812;2022-07-10T01:57:33;8.53;;;2.43;;
58250;SDS011;51449;51.676;5.812;2022-07-10T01:59:55;6.60;;;2.00;;
58250;SDS011;51449;51.676;5.812;2022-07-10T02:02:17;8.50;;;2.37;;
58250;SDS011;51449;51.676;5.812;2022-07-10T02:04:39;8.10;;;2.47;;
58250;SDS011;51449;51.676;5.812;2022-07-10T02:07:03;5.40;;;2.10;;
58250;SDS011;51449;51.676;5.812;2022-07-10T02:09:25;4.50;;;2.70;;
58250;SDS011;51449;51.676;5.812;2022-07-10T02:11:47;8.23;;;2.67;;
58250;SDS011;51449;51.676;5.812;2022-07-10T02:14:09;6.60;;;2.57;;
58250;SDS011;51449;51.676;5.812;2022-07-10T02:16:31;8.33;;;3.00;;
58250;SDS011;51449;51.676;5.812;2022-07-10T02:18:53;9.17;;;3.00;;
58250;SDS011;51449;51.676;5.812;2022-07-10T02:21:15;9.87;;;2.93;;
58250;SDS011;51449;51.676;5.812;2022-07-10T02:23:37;5.17;;;2.63;;
58250;SDS011;51449;51.676;5.812;2022-07-10T02:26:02;8.87;;;2.77;;
58250;SDS011;51449;51.676;5.812;2022-07-10T02:28:24;5.47;;;2.90;;
58250;SDS011;51449;51.676;5.812;2022-07-10T02:30:46;8.97;;;3.00;;
58250;SDS011;51449;51.676;5.812;2022-07-10T02:33:07;7.17;;;3.13;;
58250;SDS011;51449;51.676;5.812;2022-07-10T02:35:30;5.33;;;2.80;;
58250;SDS011;51449;51.676;5.812;2022-07-10T02:37:51;9.20;;;2.67;;
58250;SDS011;51449;51.676;5.812;2022-07-10T02:40:13;11.20;;;3.30;;
58250;SDS011;51449;51.676;5.812;2022-07-10T02:42:36;7.93;;;3.20;;
58250;SDS011;51449;51.676;5.812;2022-07-10T02:44:58;7.03;;;3.00;;
58250;SDS011;51449;51.676;5.812;2022-07-10T02:47:20;8.03;;;3.20;;
58250;SDS011;51449;51.676;5.812;2022-07-10T02:49:42;6.07;;;3.00;;
58250;SDS011;51449;51.676;5.812;2022-07-10T02:52:04;8.10;;;3.20;;
58250;SDS011;51449;51.676;5.812;2022-07-10T02:54:26;6.27;;;3.53;;
58250;SDS011;51449;51.676;5.812;2022-07-10T02:56:48;6.57;;;2.80;;
58250;SDS011;51449;51.676;5.812;2022-07-10T02:59:10;5.70;;;3.10;;
58250;SDS011;51449;51.676;5.812;2022-07-10T03:01:32;8.53;;;3.20;;
58250;SDS011;51449;51.676;5.812;2022-07-10T03:03:54;8.50;;;3.30;;
58250;SDS011;51449;51.676;5.812;2022-07-10T03:06:16;6.87;;;3.07;;
58250;SDS011;51449;51.676;5.812;2022-07-10T03:08:38;6.23;;;3.20;;
58250;SDS011;51449;51.676;5.812;2022-07-10T03:11:00;8.17;;;3.63;;
58250;SDS011;51449;51.676;5.812;2022-07-10T03:13:22;9.17;;;3.63;;
58250;SDS011;51449;51.676;5.812;2022-07-10T03:15:44;6.67;;;3.40;;
58250;SDS011;51449;51.676;5.812;2022-07-10T03:18:06;7.00;;;3.47;;
58250;SDS011;51449;51.676;5.812;2022-07-10T03:20:28;10.13;;;3.60;;
58250;SDS011;51449;51.676;5.812;2022-07-10T03:22:50;7.67;;;3.67;;
58250;SDS011;51449;51.676;5.812;2022-07-10T03:25:12;8.67;;;3.50;;
58250;SDS011;51449;51.676;5.812;2022-07-10T03:27:35;5.53;;;3.30;;
58250;SDS011;51449;51.676;5.812;2022-07-10T03:29:56;7.23;;;3.37;;
58250;SDS011;51449;51.676;5.812;2022-07-10T03:32:18;7.80;;;3.70;;
58250;SDS011;51449;51.676;5.812;2022-07-10T03:34:40;6.80;;;3.10;;
58250;SDS011;51449;51.676;5.812;2022-07-10T03:37:02;7.83;;;3.43;;
58250;SDS011;51449;51.676;5.812;2022-07-10T03:39:25;10.47;;;3.97;;
58250;SDS011;51449;51.676;5.812;2022-07-10T03:41:47;8.00;;;4.00;;
58250;SDS011;51449;51.676;5.812;2022-07-10T03:44:09;7.93;;;3.87;;
58250;SDS011;51449;51.676;5.812;2022-07-10T03:46:30;10.30;;;3.87;;
58250;SDS011;51449;51.676;5.812;2022-07-10T03:48:52;9.30;;;3.10;;
58250;SDS011;51449;51.676;5.812;2022-07-10T03:51:15;6.83;;;3.50;;
58250;SDS011;51449;51.676;5.812;2022-07-10T03:53:37;9.73;;;3.90;;
58250;SDS011;51449;51.676;5.812;2022-07-10T03:55:59;9.17;;;3.73;;
58250;SDS011;51449;51.676;5.812;2022-07-10T03:58:22;9.00;;;3.63;;
58250;SDS011;51449;51.676;5.812;2022-07-10T04:00:43;9.30;;;3.73;;
58250;SDS011;51449;51.676;5.812;2022-07-10T04:03:05;6.90;;;3.70;;
58250;SDS011;51449;51.676;5.812;2022-07-10T04:05:29;8.10;;;3.77;;
58250;SDS011;51449;51.676;5.812;2022-07-10T04:07:52;8.07;;;3.50;;
58250;SDS011;51449;51.676;5.812;2022-07-10T04:10:14;7.80;;;3.70;;
58250;SDS011;51449;51.676;5.812;2022-07-10T04:12:36;7.10;;;3.83;;
58250;SDS011;51449;51.676;5.812;2022-07-10T04:14:58;7.27;;;3.40;;
58250;SDS011;51449;51.676;5.812;2022-07-10T04:17:20;11.23;;;4.17;;
58250;SDS011;51449;51.676;5.812;2022-07-10T04:19:42;12.13;;;4.20;;
58250;SDS011;51449;51.676;5.812;2022-07-10T04:22:04;6.73;;;3.80;;
58250;SDS011;51449;51.676;5.812;2022-07-10T04:24:26;8.00;;;3.83;;
58250;SDS011;51449;51.676;5.812;2022-07-10T04:26:49;10.40;;;3.67;;
58250;SDS011;51449;51.676;5.812;2022-07-10T04:29:10;8.17;;;3.77;;
58250;SDS011;51449;51.676;5.812;2022-07-10T04:31:32;6.97;;;3.80;;
58250;SDS011;51449;51.676;5.812;2022-07-10T04:33:54;5.97;;;3.60;;
58250;SDS011;51449;51.676;5.812;2022-07-10T04:36:18;7.57;;;3.55;;
58250;SDS011;51449;51.676;5.812;2022-07-10T04:38:40;7.30;;;4.00;;
58250;SDS011;51449;51.676;5.812;2022-07-10T04:41:03;11.40;;;4.20;;
58250;SDS011;51449;51.676;5.812;2022-07-10T04:43:25;8.57;;;3.90;;
58250;SDS011;51449;51.676;5.812;2022-07-10T04:45:47;6.93;;;3.80;;
58250;SDS011;51449;51.676;5.812;2022-07-10T04:48:09;6.90;;;3.53;;
58250;SDS011;51449;51.676;5.812;2022-07-10T04:50:31;6.20;;;4.10;;
58250;SDS011;51449;51.676;5.812;2022-07-10T04:52:53;9.10;;;4.23;;
58250;SDS011;51449;51.676;5.812;2022-07-10T04:55:15;7.97;;;3.70;;
58250;SDS011;51449;51.676;5.812;2022-07-10T04:57:37;7.13;;;4.10;;
58250;SDS011;51449;51.676;5.812;2022-07-10T05:00:00;7.10;;;4.17;;
58250;SDS011;51449;51.676;5.812;2022-07-10T05:02:23;8.97;;;3.90;;
58250;SDS011;51449;51.676;5.812;2022-07-10T05:04:45;8.67;;;3.70;;
58250;SDS011;51449;51.676;5.812;2022-07-10T05:07:07;6.90;;;3.70;;
58250;SDS011;51449;51.676;5.812;2022-07-10T05:09:29;8.40;;;4.00;;
58250;SDS011;51449;51.676;5.812;2022-07-10T05:11:51;8.20;;;3.73;;
58250;SDS011;51449;51.676;5.812;2022-07-10T05:14:13;11.03;;;3.90;;
58250;SDS011;51449;51.676;5.812;2022-07-10T05:16:35;7.47;;;3.63;;
58250;SDS011;51449;51.676;5.812;2022-07-10T05:18:57;6.90;;;3.47;;
58250;SDS011;51449;51.676;5.812;2022-07-10T05:21:19;9.60;;;3.67;;
58250;SDS011;51449;51.676;5.812;2022-07-10T05:23:41;10.57;;;3.43;;
58250;SDS011;51449;51.676;5.812;2022-07-10T05:26:03;7.77;;;3.83;;
58250;SDS011;51449;51.676;5.812;2022-07-10T05:28:25;9.43;;;4.07;;
58250;SDS011;51449;51.676;5.812;2022-07-10T05:30:47;9.00;;;3.83;;
58250;SDS011;51449;51.676;5.812;2022-07-10T05:33:10;10.17;;;3.47;;
58250;SDS011;51449;51.676;5.812;2022-07-10T05:35:32;8.50;;;4.10;;
58250;SDS011;51449;51.676;5.812;2022-07-10T05:37:54;7.57;;;3.90;;
58250;SDS011;51449;51.676;5.812;2022-07-10T05:40:16;8.23;;;4.53;;
58250;SDS011;51449;51.676;5.812;2022-07-10T05:42:38;8.97;;;4.57;;
58250;SDS011;51449;51.676;5.812;2022-07-10T05:45:00;7.33;;;4.13;;
58250;SDS011;51449;51.676;5.812;2022-07-10T05:47:22;11.73;;;5.30;;
58250;SDS011;51449;51.676;5.812;2022-07-10T05:49:44;9.53;;;4.60;;
58250;SDS011;51449;51.676;5.812;2022-07-10T05:52:06;10.00;;;4.60;;
58250;SDS011;51449;51.676;5.812;2022-07-10T05:54:28;9.13;;;3.73;;
58250;SDS011;51449;51.676;5.812;2022-07-10T05:56:50;7.30;;;4.10;;
58250;SDS011;51449;51.676;5.812;2022-07-10T05:59:12;7.00;;;4.27;;
58250;SDS011;51449;51.676;5.812;2022-07-10T06:01:34;9.70;;;4.13;;
58250;SDS011;51449;51.676;5.812;2022-07-10T06:03:57;6.97;;;4.03;;
58250;SDS011;51449;51.676;5.812;2022-07-10T06:06:19;13.60;;;5.00;;
58250;SDS011;51449;51.676;5.812;2022-07-10T06:08:41;8.90;;;4.13;;
58250;SDS011;51449;51.676;5.812;2022-07-10T06:11:06;7.43;;;4.40;;
58250;SDS011;51449;51.676;5.812;2022-07-10T06:13:28;7.33;;;4.20;;
58250;SDS011;51449;51.676;5.812;2022-07-10T06:15:50;5.67;;;3.27;;
58250;SDS011;51449;51.676;5.812;2022-07-10T06:18:12;8.23;;;3.47;;
58250;SDS011;51449;51.676;5.812;2022-07-10T06:20:34;4.80;;;2.33;;
58250;SDS011;51449;51.676;5.812;2022-07-10T06:22:56;8.27;;;2.20;;
58250;SDS011;51449;51.676;5.812;2022-07-10T06:25:19;7.60;;;2.03;;
58250;SDS011;51449;51.676;5.812;2022-07-10T06:27:41;6.87;;;1.87;;
58250;SDS011;51449;51.676;5.812;2022-07-10T06:30:03;8.83;;;2.10;;
58250;SDS011;51449;51.676;5.812;2022-07-10T06:32:26;9.47;;;2.20;;
58250;SDS011;51449;51.676;5.812;2022-07-10T06:34:48;10.13;;;2.00;;
58250;SDS011;51449;51.676;5.812;2022-07-10T06:37:10;8.70;;;2.00;;
58250;SDS011;51449;51.676;5.812;2022-07-10T06:39:32;7.07;;;2.10;;
58250;SDS011;51449;51.676;5.812;2022-07-10T06:41:56;12.20;;;2.50;;
58250;SDS011;51449;51.676;5.812;2022-07-10T06:44:19;8.13;;;2.10;;
58250;SDS011;51449;51.676;5.812;2022-07-10T06:46:41;8.37;;;2.20;;
58250;SDS011;51449;51.676;5.812;2022-07-10T06:49:03;6.90;;;2.20;;
58250;SDS011;51449;51.676;5.812;2022-07-10T06:51:26;8.10;;;2.23;;
58250;SDS011;51449;51.676;5.812;2022-07-10T06:53:48;5.77;;;1.97;;
58250;SDS011;51449;51.676;5.812;2022-07-10T06:56:10;8.07;;;2.20;;
58250;SDS011;51449;51.676;5.812;2022-07-10T06:58:32;6.77;;;2.30;;
58250;SDS011;51449;51.676;5.812;2022-07-10T07:00:54;8.03;;;2.07;;
58250;SDS011;51449;51.676;5.812;2022-07-10T07:03:16;8.73;;;2.43;;
58250;SDS011;51449;51.676;5.812;2022-07-10T07:05:38;6.07;;;2.10;;
58250;SDS011;51449;51.676;5.812;2022-07-10T07:08:01;9.70;;;2.40;;
58250;SDS011;51449;51.676;5.812;2022-07-10T07:10:22;7.03;;;1.90;;
58250;SDS011;51449;51.676;5.812;2022-07-10T07:12:44;7.30;;;2.40;;
58250;SDS011;51449;51.676;5.812;2022-07-10T07:15:06;8.33;;;2.27;;
58250;SDS011;51449;51.676;5.812;2022-07-10T07:17:29;9.57;;;2.40;;
58250;SDS011;51449;51.676;5.812;2022-07-10T07:20:07;7.40;;;2.17;;
58250;SDS011;51449;51.676;5.812;2022-07-10T07:22:49;6.90;;;2.40;;
58250;SDS011;51449;51.676;5.812;2022-07-10T07:25:29;8.10;;;2.43;;
58250;SDS011;51449;51.676;5.812;2022-07-10T07:27:51;5.03;;;2.13;;
58250;SDS011;51449;51.676;5.812;2022-07-10T07:30:14;10.03;;;2.47;;
58250;SDS011;51449;51.676;5.812;2022-07-10T07:32:37;8.73;;;2.10;;
58250;SDS011;51449;51.676;5.812;2022-07-10T07:35:00;10.27;;;2.57;;
58250;SDS011;51449;51.676;5.812;2022-07-10T07:37:22;8.77;;;2.30;;
58250;SDS011;51449;51.676;5.812;2022-07-10T07:39:45;5.07;;;1.97;;
58250;SDS011;51449;51.676;5.812;2022-07-10T07:42:07;8.93;;;2.57;;
58250;SDS011;51449;51.676;5.812;2022-07-10T07:44:29;9.40;;;2.57;;
58250;SDS011;51449;51.676;5.812;2022-07-10T07:46:51;10.13;;;2.67;;
58250;SDS011;51449;51.676;5.812;2022-07-10T07:49:14;7.97;;;2.50;;
58250;SDS011;51449;51.676;5.812;2022-07-10T07:51:36;6.90;;;2.27;;
58250;SDS011;51449;51.676;5.812;2022-07-10T07:53:57;9.53;;;2.50;;
58250;SDS011;51449;51.676;5.812;2022-07-10T07:56:19;5.93;;;2.37;;
58250;SDS011;51449;51.676;5.812;2022-07-10T07:58:42;7.10;;;2.30;;
58250;SDS011;51449;51.676;5.812;2022-07-10T08:01:03;8.10;;;2.47;;
58250;SDS011;51449;51.676;5.812;2022-07-10T08:03:25;9.30;;;2.07;;
58250;SDS011;51449;51.676;5.812;2022-07-10T08:06:07;10.93;;;2.30;;
58250;SDS011;51449;51.676;5.812;2022-07-10T08:08:29;8.53;;;2.23;;
58250;SDS011;51449;51.676;5.812;2022-07-10T08:10:51;8.50;;;2.40;;
58250;SDS011;51449;51.676;5.812;2022-07-10T08:13:13;8.40;;;2.43;;
58250;SDS011;51449;51.676;5.812;2022-07-10T08:15:35;8.13;;;2.57;;
58250;SDS011;51449;51.676;5.812;2022-07-10T08:17:57;7.00;;;2.50;;
58250;SDS011;51449;51.676;5.812;2022-07-10T08:20:21;10.33;;;2.60;;
58250;SDS011;51449;51.676;5.812;2022-07-10T08:22:45;7.40;;;2.57;;
58250;SDS011;51449;51.676;5.812;2022-07-10T08:25:16;10.17;;;2.80;;
58250;SDS011;51449;51.676;5.812;2022-07-10T08:27:38;8.93;;;2.70;;
58250;SDS011;51449;51.676;5.812;2022-07-10T08:30:00;5.17;;;2.50;;
58250;SDS011;51449;51.676;5.812;2022-07-10T08:32:22;7.30;;;2.30;;
58250;SDS011;51449;51.676;5.812;2022-07-10T08:34:44;6.87;;;2.40;;
58250;SDS011;51449;51.676;5.812;2022-07-10T08:37:06;9.33;;;2.40;;
58250;SDS011;51449;51.676;5.812;2022-07-10T08:39:28;5.40;;;2.30;;
58250;SDS011;51449;51.676;5.812;2022-07-10T08:41:50;8.37;;;2.47;;
58250;SDS011;51449;51.676;5.812;2022-07-10T08:44:12;8.37;;;2.40;;
58250;SDS011;51449;51.676;5.812;2022-07-10T08:46:34;7.73;;;2.57;;
58250;SDS011;51449;51.676;5.812;2022-07-10T08:48:57;5.53;;;2.20;;
58250;SDS011;51449;51.676;5.812;2022-07-10T08:54:23;11.27;;;2.87;;
58250;SDS011;51449;51.676;5.812;2022-07-10T08:56:50;8.40;;;2.67;;
58250;SDS011;51449;51.676;5.812;2022-07-10T08:59:14;14.95;;;2.88;;
58250;SDS011;51449;51.676;5.812;2022-07-10T09:01:37;8.67;;;2.63;;
58250;SDS011;51449;51.676;5.812;2022-07-10T09:03:59;11.17;;;2.80;;
58250;SDS011;51449;51.676;5.812;2022-07-10T09:06:21;9.37;;;2.90;;
58250;SDS011;51449;51.676;5.812;2022-07-10T09:09:05;8.83;;;3.00;;
58250;SDS011;51449;51.676;5.812;2022-07-10T09:11:29;9.30;;;2.70;;
58250;SDS011;51449;51.676;5.812;2022-07-10T09:13:52;5.50;;;2.50;;
58250;SDS011;51449;51.676;5.812;2022-07-10T09:16:28;7.90;;;2.57;;
58250;SDS011;51449;51.676;5.812;2022-07-10T09:18:54;5.63;;;2.60;;
58250;SDS011;51449;51.676;5.812;2022-07-10T09:21:17;8.13;;;2.77;;
58250;SDS011;51449;51.676;5.812;2022-07-10T09:23:39;7.10;;;2.93;;
58250;SDS011;51449;51.676;5.812;2022-07-10T09:26:01;8.17;;;2.97;;
58250;SDS011;51449;51.676;5.812;2022-07-10T09:30:48;7.30;;;2.87;;
58250;SDS011;51449;51.676;5.812;2022-07-10T09:35:54;8.83;;;2.80;;
58250;SDS011;51449;51.676;5.812;2022-07-10T09:38:26;8.50;;;3.00;;
58250;SDS011;51449;51.676;5.812;2022-07-10T09:41:11;5.80;;;2.35;;
58250;SDS011;51449;51.676;5.812;2022-07-10T09:43:46;6.68;;;2.92;;
58250;SDS011;51449;51.676;5.812;2022-07-10T09:46:20;6.03;;;2.67;;
58250;SDS011;51449;51.676;5.812;2022-07-10T09:48:44;7.72;;;2.83;;
58250;SDS011;51449;51.676;5.812;2022-07-10T09:51:10;7.20;;;2.83;;
58250;SDS011;51449;51.676;5.812;2022-07-10T09:53:32;6.97;;;3.03;;
58250;SDS011;51449;51.676;5.812;2022-07-10T09:56:02;7.30;;;2.58;;
58250;SDS011;51449;51.676;5.812;2022-07-10T09:58:28;5.90;;;2.33;;
58250;SDS011;51449;51.676;5.812;2022-07-10T10:00:57;6.35;;;2.53;;
58250;SDS011;51449;51.676;5.812;2022-07-10T10:03:22;5.07;;;2.17;;
58250;SDS011;51449;51.676;5.812;2022-07-10T10:05:53;9.32;;;2.45;;
58250;SDS011;51449;51.676;5.812;2022-07-10T10:08:19;6.55;;;2.42;;
58250;SDS011;51449;51.676;5.812;2022-07-10T10:10:47;6.20;;;2.40;;
58250;SDS011;51449;51.676;5.812;2022-07-10T10:13:11;5.13;;;2.13;;
58250;SDS011;51449;51.676;5.812;2022-07-10T10:15:43;5.93;;;2.55;;
58250;SDS011;51449;51.676;5.812;2022-07-10T10:18:09;7.15;;;2.33;;
58250;SDS011;51449;51.676;5.812;2022-07-10T10:20:33;4.57;;;2.95;;
58250;SDS011;51449;51.676;5.812;2022-07-10T10:22:58;7.05;;;2.55;;
58250;SDS011;51449;51.676;5.812;2022-07-10T10:25:23;7.03;;;2.53;;
58250;SDS011;51449;51.676;5.812;2022-07-10T10:27:47;5.47;;;2.63;;
58250;SDS011;51449;51.676;5.812;2022-07-10T10:30:09;4.63;;;2.50;;
58250;SDS011;51449;51.676;5.812;2022-07-10T10:32:32;5.35;;;2.65;;
58250;SDS011;51449;51.676;5.812;2022-07-10T10:34:54;4.88;;;2.60;;
58250;SDS011;51449;51.676;5.812;2022-07-10T10:40:06;6.30;;;3.05;;
58250;SDS011;51449;51.676;5.812;2022-07-10T10:48:00;6.10;;;2.78;;
58250;SDS011;51449;51.676;5.812;2022-07-10T10:50:47;5.18;;;2.50;;
58250;SDS011;51449;51.676;5.812;2022-07-10T10:53:15;5.13;;;2.40;;
58250;SDS011;51449;51.676;5.812;2022-07-10T10:58:21;4.33;;;2.23;;
58250;SDS011;51449;51.676;5.812;2022-07-10T11:00:45;3.60;;;2.30;;
58250;SDS011;51449;51.676;5.812;2022-07-10T11:03:16;4.00;;;2.03;;
58250;SDS011;51449;51.676;5.812;2022-07-10T11:05:42;5.60;;;2.00;;
58250;SDS011;51449;51.676;5.812;2022-07-10T11:08:05;4.47;;;2.20;;
58250;SDS011;51449;51.676;5.812;2022-07-10T11:10:31;3.85;;;2.03;;
58250;SDS011;51449;51.676;5.812;2022-07-10T11:13:05;4.82;;;2.08;;
58250;SDS011;51449;51.676;5.812;2022-07-10T11:18:20;3.38;;;2.15;;
58250;SDS011;51449;51.676;5.812;2022-07-10T11:20:50;3.42;;;1.88;;
58250;SDS011;51449;51.676;5.812;2022-07-10T11:25:54;4.63;;;2.65;;
58250;SDS011;51449;51.676;5.812;2022-07-10T11:29:17;5.97;;;2.33;;
58250;SDS011;51449;51.676;5.812;2022-07-10T11:31:15;5.82;;;2.40;;
58250;SDS011;51449;51.676;5.812;2022-07-10T11:33:38;4.45;;;2.15;;
58250;SDS011;51449;51.676;5.812;2022-07-10T11:36:04;4.18;;;2.30;;
58250;SDS011;51449;51.676;5.812;2022-07-10T11:38:34;4.20;;;2.33;;
58250;SDS011;51449;51.676;5.812;2022-07-10T11:40:57;5.45;;;2.65;;
58250;SDS011;51449;51.676;5.812;2022-07-10T11:43:19;3.60;;;2.10;;
58250;SDS011;51449;51.676;5.812;2022-07-10T11:45:43;4.13;;;2.10;;
58250;SDS011;51449;51.676;5.812;2022-07-10T11:48:06;2.70;;;1.80;;
58250;SDS011;51449;51.676;5.812;2022-07-10T11:50:36;4.10;;;2.10;;
58250;SDS011;51449;51.676;5.812;2022-07-10T11:53:00;2.70;;;2.10;;
58250;SDS011;51449;51.676;5.812;2022-07-10T11:55:22;3.50;;;2.25;;
58250;SDS011;51449;51.676;5.812;2022-07-10T11:57:45;5.07;;;2.40;;
58250;SDS011;51449;51.676;5.812;2022-07-10T12:00:29;4.97;;;2.38;;
58250;SDS011;51449;51.676;5.812;2022-07-10T12:02:52;5.10;;;2.28;;
58250;SDS011;51449;51.676;5.812;2022-07-10T12:05:35;4.32;;;2.03;;
58250;SDS011;51449;51.676;5.812;2022-07-10T12:07:59;2.85;;;2.20;;
58250;SDS011;51449;51.676;5.812;2022-07-10T12:10:25;4.43;;;2.45;;
58250;SDS011;51449;51.676;5.812;2022-07-10T12:12:51;6.30;;;2.28;;
58250;SDS011;51449;51.676;5.812;2022-07-10T12:15:30;6.30;;;2.55;;
58250;SDS011;51449;51.676;5.812;2022-07-10T12:17:55;3.75;;;2.60;;
58250;SDS011;51449;51.676;5.812;2022-07-10T12:20:17;4.97;;;2.90;;
58250;SDS011;51449;51.676;5.812;2022-07-10T12:22:39;4.50;;;2.67;;
58250;SDS011;51449;51.676;5.812;2022-07-10T12:25:02;6.53;;;2.80;;
58250;SDS011;51449;51.676;5.812;2022-07-10T12:28:00;7.07;;;2.83;;
58250;SDS011;51449;51.676;5.812;2022-07-10T12:30:19;4.35;;;2.35;;
58250;SDS011;51449;51.676;5.812;2022-07-10T12:32:41;5.13;;;2.72;;
58250;SDS011;51449;51.676;5.812;2022-07-10T12:35:03;4.72;;;2.60;;
58250;SDS011;51449;51.676;5.812;2022-07-10T12:37:29;5.35;;;2.65;;
58250;SDS011;51449;51.676;5.812;2022-07-10T12:39:51;4.70;;;2.88;;
58250;SDS011;51449;51.676;5.812;2022-07-10T12:42:30;5.10;;;2.83;;
58250;SDS011;51449;51.676;5.812;2022-07-10T12:44:53;4.70;;;2.83;;
58250;SDS011;51449;51.676;5.812;2022-07-10T12:47:16;5.20;;;2.97;;
58250;SDS011;51449;51.676;5.812;2022-07-10T12:49:54;3.60;;;2.60;;
58250;SDS011;51449;51.676;5.812;2022-07-10T12:52:29;4.85;;;2.08;;
58250;SDS011;51449;51.676;5.812;2022-07-10T12:57:55;5.20;;;2.58;;
58250;SDS011;51449;51.676;5.812;2022-07-10T13:00:27;3.45;;;2.47;;
58250;SDS011;51449;51.676;5.812;2022-07-10T13:03:01;4.28;;;2.63;;
58250;SDS011;51449;51.676;5.812;2022-07-10T13:05:38;5.93;;;2.55;;
58250;SDS011;51449;51.676;5.812;2022-07-10T13:08:07;3.95;;;2.35;;
58250;SDS011;51449;51.676;5.812;2022-07-10T13:10:41;4.90;;;2.13;;
58250;SDS011;51449;51.676;5.812;2022-07-10T13:13:10;4.47;;;1.92;;
58250;SDS011;51449;51.676;5.812;2022-07-10T13:15:33;3.22;;;2.08;;
58250;SDS011;51449;51.676;5.812;2022-07-10T13:18:06;3.65;;;2.20;;
58250;SDS011;51449;51.676;5.812;2022-07-10T13:20:29;3.03;;;2.00;;
58250;SDS011;51449;51.676;5.812;2022-07-10T13:22:51;2.88;;;2.17;;
58250;SDS011;51449;51.676;5.812;2022-07-10T13:25:13;4.35;;;2.30;;
58250;SDS011;51449;51.676;5.812;2022-07-10T13:27:35;5.93;;;2.40;;
58250;SDS011;51449;51.676;5.812;2022-07-10T13:29:57;4.00;;;2.13;;
58250;SDS011;51449;51.676;5.812;2022-07-10T13:32:20;4.60;;;2.20;;
58250;SDS011;51449;51.676;5.812;2022-07-10T13:34:48;3.67;;;2.30;;
58250;SDS011;51449;51.676;5.812;2022-07-10T13:37:10;5.00;;;2.10;;
58250;SDS011;51449;51.676;5.812;2022-07-10T13:39:35;2.90;;;1.90;;
58250;SDS011;51449;51.676;5.812;2022-07-10T13:41:56;5.53;;;2.10;;
58250;SDS011;51449;51.676;5.812;2022-07-10T13:44:18;2.88;;;1.80;;
58250;SDS011;51449;51.676;5.812;2022-07-10T13:46:40;5.88;;;2.00;;
58250;SDS011;51449;51.676;5.812;2022-07-10T13:49:03;5.38;;;1.77;;
58250;SDS011;51449;51.676;5.812;2022-07-10T13:51:28;4.80;;;2.38;;
58250;SDS011;51449;51.676;5.812;2022-07-10T13:53:50;5.25;;;2.08;;
58250;SDS011;51449;51.676;5.812;2022-07-10T13:56:12;3.00;;;1.70;;
58250;SDS011;51449;51.676;5.812;2022-07-10T13:58:37;4.40;;;1.70;;
58250;SDS011;51449;51.676;5.812;2022-07-10T14:00:59;2.85;;;1.48;;
58250;SDS011;51449;51.676;5.812;2022-07-10T14:03:22;3.40;;;1.75;;
58250;SDS011;51449;51.676;5.812;2022-07-10T14:05:44;4.53;;;1.80;;
58250;SDS011;51449;51.676;5.812;2022-07-10T14:08:06;3.95;;;1.70;;
58250;SDS011;51449;51.676;5.812;2022-07-10T14:10:28;3.42;;;1.52;;
58250;SDS011;51449;51.676;5.812;2022-07-10T14:12:51;2.97;;;1.70;;
58250;SDS011;51449;51.676;5.812;2022-07-10T14:17:36;4.03;;;1.90;;
58250;SDS011;51449;51.676;5.812;2022-07-10T14:19:58;4.35;;;2.10;;
58250;SDS011;51449;51.676;5.812;2022-07-10T14:22:20;4.28;;;1.88;;
58250;SDS011;51449;51.676;5.812;2022-07-10T14:24:43;3.25;;;1.77;;
58250;SDS011;51449;51.676;5.812;2022-07-10T14:27:05;4.13;;;1.95;;
58250;SDS011;51449;51.676;5.812;2022-07-10T14:29:27;3.53;;;2.00;;
58250;SDS011;51449;51.676;5.812;2022-07-10T14:31:49;2.90;;;1.70;;
58250;SDS011;51449;51.676;5.812;2022-07-10T14:34:13;3.20;;;1.90;;
58250;SDS011;51449;51.676;5.812;2022-07-10T14:36:35;4.25;;;2.00;;
58250;SDS011;51449;51.676;5.812;2022-07-10T14:38:57;4.85;;;2.17;;
58250;SDS011;51449;51.676;5.812;2022-07-10T14:41:20;4.47;;;2.50;;
58250;SDS011;51449;51.676;5.812;2022-07-10T14:43:43;2.70;;;1.98;;
58250;SDS011;51449;51.676;5.812;2022-07-10T14:46:05;3.13;;;1.65;;
58250;SDS011;51449;51.676;5.812;2022-07-10T14:48:28;4.35;;;1.80;;
58250;SDS011;51449;51.676;5.812;2022-07-10T14:50:50;3.50;;;1.73;;
58250;SDS011;51449;51.676;5.812;2022-07-10T14:53:12;4.63;;;1.88;;
58250;SDS011;51449;51.676;5.812;2022-07-10T14:55:34;5.03;;;1.90;;